Time;durP1;ratioP1;P1;durP2;ratioP2;P2;SDS_P1;SDS_P2;PMS_P1;PMS_P2;Temp;Humidity;BMP_temperature;BMP_pressure;BME280_temperature;BME280_humidity;BME280_pressure;Samples;Min_cycle;Max_cycle;Signal;HPM_P1;HPM_P2
2022/10/03 00:00:14;;;;;;;1.50;0.70;;;;;;;19.77;63.76;101163.41;5084032;28;20477;-63
2022/10/03 00:03:09;;;;;;;1.87;1.00;;;;;;;19.76;63.74;101166.69;5085073;28;20914;-64
2022/10/03 00:06:01;;;;;;;1.93;0.83;;;;;;;19.76;63.96;101173.22;5069761;28;20460;-63
2022/10/03 00:08:48;;;;;;;1.80;0.90;;;;;;;19.77;63.86;101171.19;5052098;28;20431;-63
2022/10/03 00:11:22;;;;;;;2.20;0.90;;;;;;;19.75;63.97;101165.00;5071838;28;20389;-63
2022/10/03 00:14:16;;;;;;;2.57;0.80;;;;;;;19.77;63.82;101154.00;5071578;28;20770;-63
2022/10/03 00:17:03;;;;;;;2.00;0.87;;;;;;;19.78;63.85;101165.13;5071496;28;20839;-63
2022/10/03 00:19:50;;;;;;;1.53;0.73;;;;;;;19.76;63.93;101163.81;5072850;28;20432;-63
2022/10/03 00:22:18;;;;;;;1.83;0.97;;;;;;;19.74;63.79;101164.19;5072619;28;20925;-63
2022/10/03 00:25:02;;;;;;;1.70;0.70;;;;;;;19.74;63.93;101164.19;5073173;28;20760;-63
2022/10/03 00:27:31;;;;;;;2.60;1.27;;;;;;;19.75;63.94;101174.44;5055213;28;20488;-63
2022/10/03 00:30:15;;;;;;;2.33;0.90;;;;;;;19.75;63.85;101177.28;5073295;28;20440;-64
2022/10/03 00:32:50;;;;;;;1.70;0.93;;;;;;;19.73;63.75;101176.84;5073295;28;20423;-63
2022/10/03 00:35:36;;;;;;;1.57;0.90;;;;;;;19.75;63.74;101177.28;5072988;28;20985;-63
2022/10/03 00:38:32;;;;;;;2.07;0.60;;;;;;;19.73;63.99;101178.88;5072861;28;20444;-64
2022/10/03 00:41:15;;;;;;;1.70;0.70;;;;;;;19.73;63.99;101179.72;5071907;28;20491;-64
2022/10/03 00:44:05;;;;;;;1.77;0.87;;;;;;;19.73;63.89;101194.03;5072661;28;20502;-63
2022/10/03 00:47:13;;;;;;;1.53;0.70;;;;;;;19.76;63.79;101195.34;5070822;28;20461;-63
2022/10/03 00:49:57;;;;;;;1.60;0.83;;;;;;;19.75;64.04;101200.22;5037239;28;20539;-63
2022/10/03 00:52:38;;;;;;;2.07;0.80;;;;;;;19.72;63.99;101203.81;5052647;28;20457;-63
2022/10/03 00:55:03;;;;;;;1.83;0.90;;;;;;;19.74;63.31;101203.44;5051397;28;20410;-63
2022/10/03 00:57:36;;;;;;;1.67;0.73;;;;;;;19.72;63.99;101206.66;5052832;28;20425;-63
2022/10/03 01:00:35;;;;;;;1.63;0.70;;;;;;;19.73;63.95;101213.25;5052520;28;20526;-63
2022/10/03 01:03:01;;;;;;;1.40;0.70;;;;;;;19.75;63.96;101228.03;5055256;28;20420;-63
2022/10/03 01:05:30;;;;;;;2.33;1.10;;;;;;;19.72;64.07;101223.06;5072854;28;20417;-63
2022/10/03 01:08:08;;;;;;;1.97;1.00;;;;;;;19.71;63.89;101230.78;5054558;28;20211;-63
2022/10/03 01:10:54;;;;;;;1.63;0.83;;;;;;;19.72;63.87;101229.59;5072201;28;20417;-63
2022/10/03 01:13:38;;;;;;;1.73;0.80;;;;;;;19.74;63.89;101240.69;5072385;28;20425;-63
2022/10/03 01:16:20;;;;;;;2.07;0.90;;;;;;;19.72;63.93;101251.69;5072420;28;20401;-63
2022/10/03 01:18:55;;;;;;;1.80;0.90;;;;;;;19.71;63.80;101239.41;5054052;28;20402;-63
2022/10/03 01:21:43;;;;;;;1.77;0.80;;;;;;;19.72;64.24;101243.09;5054178;28;20440;-63
2022/10/03 01:24:33;;;;;;;1.80;0.87;;;;;;;19.73;64.07;101253.34;5052242;28;20434;-63
2022/10/03 01:27:12;;;;;;;1.90;1.10;;;;;;;19.72;63.82;101248.84;5066230;28;20453;-63
2022/10/03 01:32:44;;;;;;;1.87;0.90;;;;;;;19.70;64.27;101254.91;5058576;28;20443;-63
2022/10/03 01:35:47;;;;;;;1.70;0.87;;;;;;;19.70;63.96;101256.94;5071811;28;20783;-63
2022/10/03 01:38:18;;;;;;;2.03;0.93;;;;;;;19.70;64.26;101254.06;5068935;28;20416;-63
2022/10/03 01:40:52;;;;;;;2.43;0.80;;;;;;;19.71;63.85;101256.59;5053985;28;20421;-63
2022/10/03 01:43:31;;;;;;;2.10;0.90;;;;;;;19.68;63.79;101251.59;5054445;28;20424;-63
2022/10/03 01:46:16;;;;;;;2.63;0.70;;;;;;;19.70;63.95;101252.06;5038794;28;20987;-63
2022/10/03 01:48:51;;;;;;;1.60;0.70;;;;;;;19.69;63.82;101250.41;5069361;28;20520;-63
2022/10/03 01:51:25;;;;;;;3.27;0.90;;;;;;;19.69;63.84;101252.41;5033593;28;20492;-63
2022/10/03 01:53:57;;;;;;;2.80;0.90;;;;;;;19.67;63.93;101249.09;5051913;28;20409;-63
2022/10/03 01:56:43;;;;;;;2.90;1.10;;;;;;;19.67;63.95;101246.22;5033563;28;20430;-63
2022/10/03 01:59:16;;;;;;;4.40;0.83;;;;;;;19.71;63.86;101264.38;5051426;28;20453;-63
2022/10/03 02:02:07;;;;;;;1.80;0.80;;;;;;;19.67;63.86;101255.66;5051673;28;20414;-63
2022/10/03 02:04:41;;;;;;;1.80;0.80;;;;;;;19.69;63.96;101249.56;5039676;28;20417;-63
2022/10/03 02:07:16;;;;;;;2.30;0.80;;;;;;;19.67;63.93;101247.06;5052897;28;20463;-63
2022/10/03 02:09:55;;;;;;;2.10;0.80;;;;;;;19.67;64.12;101254.84;5071347;28;20400;-63
2022/10/03 02:12:21;;;;;;;1.70;0.90;;;;;;;19.67;63.48;101249.09;5037455;28;20416;-63
2022/10/03 02:15:13;;;;;;;1.43;0.70;;;;;;;19.66;63.77;101251.13;5071237;28;20764;-63
2022/10/03 02:17:44;;;;;;;1.60;0.90;;;;;;;19.66;63.98;101250.31;5071333;28;20171;-63
2022/10/03 02:20:30;;;;;;;1.60;0.83;;;;;;;19.67;63.70;101251.97;5053424;28;20783;-63
2022/10/03 02:22:56;;;;;;;1.70;0.90;;;;;;;19.67;63.89;101247.06;5070688;28;20413;-63
2022/10/03 02:25:49;;;;;;;1.70;0.90;;;;;;;19.65;63.93;101249.47;5069674;28;20400;-63
2022/10/03 02:28:29;;;;;;;3.60;0.90;;;;;;;19.65;63.89;101240.88;5070806;28;20210;-63
2022/10/03 02:31:32;;;;;;;1.50;0.80;;;;;;;19.67;63.89;101249.91;5071269;28;20407;-63
2022/10/03 02:34:18;;;;;;;1.90;0.80;;;;;;;19.67;63.73;101254.84;5070162;28;21606;-64
2022/10/03 02:37:14;;;;;;;1.93;0.90;;;;;;;19.66;63.98;101247.44;5050948;28;20543;-63
2022/10/03 02:40:31;;;;;;;2.03;0.80;;;;;;;19.64;63.86;101250.66;5049215;28;20484;-63
2022/10/03 02:43:15;;;;;;;1.97;0.90;;;;;;;19.64;63.75;101242.06;5025548;28;20781;-64
2022/10/03 02:45:59;;;;;;;1.90;0.90;;;;;;;19.65;63.70;101235.13;5050361;28;20457;-64
2022/10/03 02:48:58;;;;;;;1.83;0.90;;;;;;;19.66;63.88;101231.06;5057513;28;20445;-64
2022/10/03 02:51:38;;;;;;;1.50;0.80;;;;;;;19.63;63.91;101240.41;5070273;28;20492;-63
2022/10/03 02:54:29;;;;;;;1.70;0.80;;;;;;;19.64;63.97;101242.06;5069729;28;20421;-63
2022/10/03 02:57:16;;;;;;;1.60;0.70;;;;;;;19.64;64.09;101238.34;5069909;28;20778;-63
2022/10/03 03:00:10;;;;;;;2.40;0.93;;;;;;;19.64;63.87;101230.59;5070489;28;20406;-63
2022/10/03 03:03:00;;;;;;;2.27;0.80;;;;;;;19.63;64.00;101243.28;5070417;28;20511;-63
2022/10/03 03:05:47;;;;;;;1.60;0.77;;;;;;;19.64;63.75;101235.50;5050456;28;20418;-63
2022/10/03 03:08:17;;;;;;;1.70;0.87;;;;;;;19.61;64.11;101239.91;5060098;28;20421;-63
2022/10/03 03:11:25;;;;;;;1.53;0.70;;;;;;;19.61;63.92;101242.78;5052500;28;20888;-63
2022/10/03 03:14:18;;;;;;;1.30;0.60;;;;;;;19.65;63.80;101228.56;5052319;28;20416;-63
2022/10/03 03:17:08;;;;;;;2.43;0.60;;;;;;;19.63;63.99;101243.28;5070884;28;20392;-63
2022/10/03 03:19:36;;;;;;;2.37;0.80;;;;;;;19.62;64.43;101226.44;5070591;28;20445;-63
2022/10/03 03:22:10;;;;;;;3.17;0.70;;;;;;;19.63;63.91;101237.53;5052513;28;20820;-63
2022/10/03 03:24:56;;;;;;;2.80;1.00;;;;;;;19.63;63.90;101234.69;5051670;28;20425;-63
2022/10/03 03:27:42;;;;;;;1.50;0.70;;;;;;;19.62;63.77;101235.84;5050259;28;20461;-63
2022/10/03 03:30:30;;;;;;;2.03;0.87;;;;;;;19.63;63.90;101237.53;5059535;28;20423;-63
2022/10/03 03:33:25;;;;;;;1.30;0.70;;;;;;;19.66;63.93;101218.78;5070103;28;20414;-63
2022/10/03 03:35:59;;;;;;;2.10;0.80;;;;;;;19.64;63.78;101222.03;5044836;28;20445;-63
2022/10/03 03:38:34;;;;;;;1.50;0.77;;;;;;;19.62;63.92;101233.00;5070821;28;21006;-63
2022/10/03 03:41:25;;;;;;;1.67;0.80;;;;;;;19.62;63.90;101224.41;5052455;28;20843;-63
2022/10/03 03:44:09;;;;;;;1.40;0.60;;;;;;;19.63;64.05;101230.97;4955944;28;20480;-64
2022/10/03 03:47:02;;;;;;;1.50;0.70;;;;;;;19.63;63.73;101240.41;5070144;28;20858;-63
2022/10/03 03:49:48;;;;;;;1.97;1.07;;;;;;;19.63;63.76;101243.28;5055555;28;20438;-63
2022/10/03 03:52:54;;;;;;;1.70;0.80;;;;;;;19.64;63.64;101249.81;5039584;28;20485;-63
2022/10/03 03:55:52;;;;;;;1.80;0.80;;;;;;;19.62;64.11;101252.22;5030807;28;20425;-63
2022/10/03 03:58:26;;;;;;;1.83;0.80;;;;;;;19.64;63.83;101252.69;5035889;28;20421;-63
2022/10/03 04:01:12;;;;;;;1.30;0.60;;;;;;;19.61;63.77;101262.84;5088697;28;20505;-63
2022/10/03 04:03:59;;;;;;;1.57;0.70;;;;;;;19.63;63.73;101266.19;5072371;28;20879;-63
2022/10/03 04:07:04;;;;;;;1.60;0.80;;;;;;;19.65;63.68;101262.94;5072393;28;20559;-63
2022/10/03 04:09:46;;;;;;;1.57;0.80;;;;;;;19.63;63.79;101260.47;5021295;28;20437;-63
2022/10/03 04:12:41;;;;;;;1.60;0.70;;;;;;;19.64;63.80;101270.72;5052907;28;20523;-63
2022/10/03 04:15:29;;;;;;;2.00;0.93;;;;;;;19.62;63.76;101267.38;5052891;28;20418;-63
2022/10/03 04:20:55;;;;;;;1.50;0.70;;;;;;;19.66;63.55;101274.03;5038705;28;20452;-63
2022/10/03 04:23:38;;;;;;;1.80;0.70;;;;;;;19.65;63.77;101269.50;5064851;28;20444;-63
2022/10/03 04:26:28;;;;;;;1.30;0.70;;;;;;;19.63;63.71;101276.81;5073172;28;20966;-63
2022/10/03 04:29:35;;;;;;;1.97;0.90;;;;;;;19.65;63.72;101280.97;5072677;28;20401;-63
2022/10/03 04:32:08;;;;;;;1.90;0.90;;;;;;;19.65;63.86;101278.09;5052586;28;20426;-63
2022/10/03 04:35:11;;;;;;;2.90;0.70;;;;;;;19.63;63.91;101277.66;5053151;28;20931;-64
2022/10/03 04:37:58;;;;;;;1.50;0.80;;;;;;;19.62;63.85;101275.97;5043393;28;20487;-63
2022/10/03 04:40:58;;;;;;;1.50;0.70;;;;;;;19.61;63.88;101279.22;5072745;28;20402;-63
2022/10/03 04:43:44;;;;;;;1.53;0.60;;;;;;;19.63;63.67;101280.50;5059254;28;20429;-63
2022/10/03 04:46:26;;;;;;;1.63;0.77;;;;;;;19.64;63.77;101279.31;5073829;28;20762;-63
2022/10/03 04:48:51;;;;;;;1.87;0.90;;;;;;;19.63;64.02;101280.50;5053715;28;20421;-63
2022/10/03 04:51:29;;;;;;;1.47;0.70;;;;;;;19.63;63.51;101271.91;5072288;28;20826;-63
2022/10/03 04:54:01;;;;;;;1.50;0.70;;;;;;;19.64;63.68;101279.31;5070665;28;20171;-63
2022/10/03 04:56:41;;;;;;;1.43;0.60;;;;;;;19.63;63.92;101286.25;5087782;28;20422;-63
2022/10/03 04:59:37;;;;;;;1.87;0.70;;;;;;;19.66;63.63;101293.28;5072388;28;20774;-63
2022/10/03 05:02:17;;;;;;;1.50;0.67;;;;;;;19.63;63.56;101294.00;5054689;28;20865;-63
2022/10/03 05:05:35;;;;;;;1.70;0.70;;;;;;;19.64;63.53;101287.91;5072471;28;20412;-63
2022/10/03 05:08:16;;;;;;;1.90;0.70;;;;;;;19.63;63.61;101289.09;5028740;28;20812;-63
2022/10/03 05:10:47;;;;;;;1.60;0.90;;;;;;;19.62;63.75;101295.19;5072262;28;20425;-63
2022/10/03 05:13:40;;;;;;;2.00;0.80;;;;;;;19.65;63.57;101301.03;5054559;28;20417;-63
2022/10/03 05:16:18;;;;;;;1.83;1.00;;;;;;;19.65;63.56;101292.44;5072308;28;20451;-63
2022/10/03 05:18:51;;;;;;;1.40;0.60;;;;;;;19.64;63.61;101295.66;5037875;28;20429;-63
2022/10/03 05:21:26;;;;;;;2.07;0.70;;;;;;;19.63;63.62;101297.72;5037946;28;20988;-63
2022/10/03 05:24:09;;;;;;;1.77;0.93;;;;;;;19.63;63.56;101299.72;5072213;28;20417;-63
2022/10/03 05:27:05;;;;;;;1.40;0.70;;;;;;;19.63;63.88;101305.44;5072007;28;20463;-63
2022/10/03 05:29:37;;;;;;;1.40;0.73;;;;;;;19.62;63.67;101313.19;5067234;28;20425;-63
2022/10/03 05:32:44;;;;;;;1.60;0.50;;;;;;;19.63;63.82;101311.19;5037999;28;20888;-63
2022/10/03 05:35:31;;;;;;;1.60;0.70;;;;;;;19.63;63.71;101312.03;5060826;28;20405;-63
2022/10/03 05:38:18;;;;;;;1.73;0.80;;;;;;;19.64;63.72;101319.41;5053942;28;20461;-63
2022/10/03 05:41:04;;;;;;;1.70;0.80;;;;;;;19.62;63.69;101316.06;5056555;28;20397;-63
2022/10/03 05:43:35;;;;;;;1.87;0.70;;;;;;;19.63;63.25;101317.75;5013979;28;20424;-64
2022/10/03 05:46:05;;;;;;;1.30;0.60;;;;;;;19.60;63.82;101320.50;5071623;28;20483;-64
2022/10/03 05:49:07;;;;;;;2.10;0.90;;;;;;;19.61;63.86;101325.03;5054093;28;20445;-64
2022/10/03 05:52:06;;;;;;;1.40;0.70;;;;;;;19.57;64.26;101329.84;5056335;28;20472;-63
2022/10/03 05:54:46;;;;;;;1.50;0.70;;;;;;;19.57;63.81;101327.78;5026947;28;20504;-63
2022/10/03 05:57:30;;;;;;;1.40;0.70;;;;;;;19.59;63.65;101336.88;5071166;28;20460;-63
2022/10/03 06:00:13;;;;;;;1.80;0.77;;;;;;;19.59;63.58;101339.72;5051479;28;20391;-63
2022/10/03 06:03:07;;;;;;;1.87;0.70;;;;;;;19.62;63.66;101343.91;5051307;28;20414;-63
2022/10/03 06:05:49;;;;;;;1.30;0.53;;;;;;;19.57;64.09;101336.38;5049786;28;20445;-63
2022/10/03 06:08:40;;;;;;;1.40;0.70;;;;;;;19.56;63.97;101334.72;5042848;28;20414;-63
2022/10/03 06:11:40;;;;;;;1.50;0.80;;;;;;;19.57;63.69;101342.09;5070602;28;20390;-63
2022/10/03 06:14:22;;;;;;;1.40;0.67;;;;;;;19.59;63.84;101341.75;5052459;28;20409;-63
2022/10/03 06:17:21;;;;;;;1.50;0.60;;;;;;;19.58;63.74;101351.53;5070419;28;20498;-63
2022/10/03 06:20:14;;;;;;;1.97;0.70;;;;;;;19.57;63.90;101353.56;5052985;28;20446;-63
2022/10/03 06:22:43;;;;;;;1.30;0.63;;;;;;;19.60;63.64;101352.84;5071041;28;20410;-63
2022/10/03 06:25:42;;;;;;;1.60;0.80;;;;;;;19.58;63.97;101365.88;5070883;28;20406;-63
2022/10/03 06:28:30;;;;;;;1.77;0.70;;;;;;;19.55;63.71;101361.69;5052864;28;20768;-63
2022/10/03 06:31:26;;;;;;;1.73;0.73;;;;;;;19.58;63.82;101355.25;5071263;28;20408;-63
2022/10/03 06:34:30;;;;;;;1.47;0.77;;;;;;;19.58;63.75;101351.53;5071100;28;20401;-63
2022/10/03 06:37:13;;;;;;;2.43;0.77;;;;;;;19.58;63.77;101358.13;5070593;28;20397;-63
2022/10/03 06:39:57;;;;;;;1.23;0.50;;;;;;;19.57;63.72;101353.56;5070737;28;20440;-63
2022/10/03 06:42:39;;;;;;;1.40;0.70;;;;;;;19.58;63.59;101360.97;5070904;28;20446;-63
2022/10/03 06:45:22;;;;;;;2.23;1.13;;;;;;;19.57;63.76;101367.06;5085714;28;20927;-63
2022/10/03 06:48:16;;;;;;;1.50;0.63;;;;;;;19.57;63.82;101373.63;5086196;28;20444;-63
2022/10/03 06:50:45;;;;;;;1.30;0.57;;;;;;;19.56;63.98;101374.81;5070105;28;20424;-63
2022/10/03 06:53:29;;;;;;;1.50;0.60;;;;;;;19.56;63.98;101376.88;5052921;28;20491;-63
2022/10/03 06:56:00;;;;;;;1.50;0.60;;;;;;;19.54;63.79;101377.22;5070250;28;20398;-63
2022/10/03 06:58:57;;;;;;;1.73;0.93;;;;;;;19.52;63.78;101385.31;5052492;28;20990;-63
2022/10/03 07:01:50;;;;;;;1.50;0.60;;;;;;;19.53;64.15;101377.56;5050475;28;20399;-63
2022/10/03 07:04:25;;;;;;;1.40;0.70;;;;;;;19.56;63.78;101377.69;5062444;28;20424;-63
2022/10/03 07:07:18;;;;;;;1.50;0.70;;;;;;;19.55;63.98;101378.88;5070360;28;20463;-63
2022/10/03 07:10:00;;;;;;;1.30;0.67;;;;;;;19.53;63.77;101383.31;5035501;28;20995;-63
2022/10/03 07:12:46;;;;;;;1.60;0.60;;;;;;;19.51;63.98;101383.66;5050376;28;20410;-63
2022/10/03 07:15:39;;;;;;;1.40;0.70;;;;;;;19.52;63.84;101382.47;5053006;28;20749;-63
2022/10/03 07:18:36;;;;;;;1.50;0.90;;;;;;;19.52;64.04;101388.19;5051226;28;20402;-64
2022/10/03 07:21:27;;;;;;;1.83;0.70;;;;;;;19.52;63.90;101382.47;5054562;28;20501;-63
2022/10/03 07:24:14;;;;;;;1.53;0.73;;;;;;;19.52;63.85;101385.31;5069069;28;20973;-63
2022/10/03 07:27:07;;;;;;;1.40;0.63;;;;;;;19.50;63.96;101384.88;5074177;28;20957;-63
2022/10/03 07:29:52;;;;;;;1.80;0.73;;;;;;;19.51;63.87;101389.38;5074560;28;20406;-63
2022/10/03 07:32:31;;;;;;;1.40;0.70;;;;;;;19.50;63.86;101396.31;5074157;28;20477;-63
2022/10/03 07:38:59;;;;;;;1.80;0.80;;;;;;;19.50;63.98;101395.47;5074171;28;20919;-63
2022/10/03 07:41:40;;;;;;;2.00;0.80;;;;;;;19.51;63.81;101400.84;5073931;28;20412;-64
2022/10/03 07:44:08;;;;;;;1.50;0.70;;;;;;;19.52;63.93;101402.50;5056160;28;20466;-64
2022/10/03 07:46:45;;;;;;;1.60;0.70;;;;;;;19.51;63.54;101406.56;5074412;28;20460;-63
2022/10/03 07:49:16;;;;;;;1.30;0.60;;;;;;;19.50;63.76;101401.19;5074264;28;20854;-63
2022/10/03 07:51:51;;;;;;;1.30;0.60;;;;;;;19.52;63.87;101413.16;5056206;28;20951;-63
2022/10/03 07:55:14;;;;;;;1.60;0.80;;;;;;;19.50;63.90;101416.38;5073610;28;20408;-63
2022/10/03 07:57:49;;;;;;;2.23;0.70;;;;;;;19.51;64.03;101402.91;4991642;28;20412;-63
2022/10/03 08:00:18;;;;;;;1.33;0.50;;;;;;;19.51;64.04;101411.50;4975966;28;20423;-63
2022/10/03 08:03:02;;;;;;;1.70;0.70;;;;;;;19.50;63.87;101412.66;5008880;28;20956;-63
2022/10/03 08:05:55;;;;;;;1.60;0.60;;;;;;;19.51;63.78;101418.03;5071918;28;20409;-63
2022/10/03 08:08:53;;;;;;;1.30;0.67;;;;;;;19.50;63.86;101413.50;5071823;28;20494;-64
2022/10/03 08:11:35;;;;;;;1.30;0.63;;;;;;;19.50;63.91;101407.78;5055897;28;20457;-63
2022/10/03 08:14:07;;;;;;;1.60;0.80;;;;;;;19.51;63.69;101415.16;5054510;28;20402;-63
2022/10/03 08:16:51;;;;;;;1.63;0.77;;;;;;;19.50;64.02;101415.53;5072839;28;20401;-64
2022/10/03 08:19:25;;;;;;;1.20;0.60;;;;;;;19.52;64.03;101416.81;5073338;28;20413;-63
2022/10/03 08:22:23;;;;;;;2.83;0.90;;;;;;;19.50;63.92;101416.38;5056474;28;20432;-63
2022/10/03 08:24:59;;;;;;;1.30;0.63;;;;;;;19.49;63.81;101417.56;5042896;28;20437;-63
2022/10/03 08:27:59;;;;;;;2.00;0.80;;;;;;;19.49;63.97;101419.59;5071061;28;20539;-63
2022/10/03 08:30:31;;;;;;;1.47;0.77;;;;;;;19.50;63.77;101422.09;5071970;28;20436;-63
2022/10/03 08:33:07;;;;;;;2.07;0.70;;;;;;;19.48;63.87;101424.50;5073109;28;20409;-63
2022/10/03 08:35:56;;;;;;;1.60;0.63;;;;;;;19.50;63.91;101416.38;5071312;28;20405;-63
2022/10/03 08:38:22;;;;;;;1.40;0.60;;;;;;;19.50;63.80;101427.81;5088656;28;20429;-63
2022/10/03 08:40:56;;;;;;;1.90;0.87;;;;;;;19.52;63.73;101425.41;5073116;28;20741;-63
2022/10/03 08:43:59;;;;;;;1.50;0.60;;;;;;;19.49;63.89;101425.31;5072855;28;20174;-63
2022/10/03 08:47:02;;;;;;;1.80;0.70;;;;;;;19.50;63.88;101424.13;5004443;28;20459;-63
2022/10/03 08:49:40;;;;;;;1.50;0.60;;;;;;;19.49;63.92;101423.31;5047824;28;20524;-63
2022/10/03 08:52:34;;;;;;;1.20;0.50;;;;;;;19.51;63.80;101417.22;5072107;28;20460;-63
2022/10/03 08:55:20;;;;;;;1.40;0.60;;;;;;;19.51;63.85;101417.22;5072907;28;20398;-63
2022/10/03 08:58:24;;;;;;;1.70;0.80;;;;;;;19.49;63.91;101417.56;5055081;28;20497;-63
2022/10/03 09:01:15;;;;;;;2.07;0.70;;;;;;;19.51;63.89;101420.91;5071165;28;20454;-64
2022/10/03 09:03:59;;;;;;;1.30;0.50;;;;;;;19.49;64.02;101411.84;5041479;28;20416;-63
2022/10/03 09:06:25;;;;;;;1.60;0.70;;;;;;;19.48;63.73;101412.19;5091528;28;20448;-63
2022/10/03 09:08:57;;;;;;;1.87;0.70;;;;;;;19.48;63.96;101412.19;5076712;28;20428;-63
2022/10/03 09:11:50;;;;;;;1.50;0.70;;;;;;;19.47;63.93;101417.06;5071639;28;20171;-63
2022/10/03 09:14:48;;;;;;;1.87;0.60;;;;;;;19.48;63.89;101424.50;5071770;28;20500;-63
2022/10/03 09:17:51;;;;;;;1.30;0.60;;;;;;;19.49;63.75;101419.59;5071547;28;20432;-64
2022/10/03 09:20:45;;;;;;;1.60;0.80;;;;;;;19.48;63.78;101421.63;5072062;28;20409;-64
2022/10/03 09:23:37;;;;;;;1.40;0.70;;;;;;;19.46;63.91;101414.59;5056092;28;20409;-63
2022/10/03 09:26:40;;;;;;;1.50;0.70;;;;;;;19.48;63.90;101427.38;5072152;28;20465;-63
2022/10/03 09:29:36;;;;;;;2.20;0.80;;;;;;;19.47;63.97;101416.25;5072196;28;20916;-63
2022/10/03 09:32:11;;;;;;;2.37;0.77;;;;;;;19.44;63.99;101417.81;5055247;28;20398;-63
2022/10/03 09:35:14;;;;;;;1.33;0.67;;;;;;;19.48;63.78;101415.91;5071833;28;20513;-63
2022/10/03 09:38:11;;;;;;;1.50;0.70;;;;;;;19.48;63.91;101412.19;5071698;28;20463;-63
2022/10/03 09:41:05;;;;;;;1.60;0.63;;;;;;;19.46;63.87;101412.56;5053773;28;20555;-64
2022/10/03 09:43:49;;;;;;;1.57;0.73;;;;;;;19.46;63.94;101406.81;5053819;28;20440;-63
2022/10/03 09:46:39;;;;;;;1.40;0.60;;;;;;;19.47;63.74;101404.81;5071636;28;20955;-63
2022/10/03 09:49:25;;;;;;;1.70;0.60;;;;;;;19.49;63.96;101405.25;5071245;28;20429;-63
2022/10/03 09:51:56;;;;;;;1.63;0.80;;;;;;;19.47;64.00;101405.63;5070218;28;20467;-63
2022/10/03 09:54:47;;;;;;;2.20;0.90;;;;;;;19.48;64.00;101400.75;5070195;28;20406;-63
2022/10/03 09:57:37;;;;;;;2.10;0.60;;;;;;;19.46;63.90;101403.97;5052162;28;20393;-63
2022/10/03 10:00:12;;;;;;;1.43;0.80;;;;;;;19.46;63.87;101403.97;5069686;28;20522;-63
2022/10/03 10:02:43;;;;;;;1.83;0.80;;;;;;;19.44;64.07;101406.34;5069016;28;20405;-63
2022/10/03 10:05:26;;;;;;;1.83;1.13;;;;;;;19.45;63.96;101410.03;5049756;28;20482;-63
2022/10/03 10:08:03;;;;;;;1.73;0.60;;;;;;;19.45;64.04;101402.28;5056578;28;20457;-64
2022/10/03 10:10:53;;;;;;;1.50;0.80;;;;;;;19.45;64.12;101410.88;5053567;28;20401;-63
2022/10/03 10:13:56;;;;;;;1.60;0.70;;;;;;;19.47;63.77;101407.66;5070705;28;20406;-63
2022/10/03 10:16:33;;;;;;;1.40;0.70;;;;;;;19.47;63.81;101408.47;5052795;28;20907;-63
2022/10/03 10:19:17;;;;;;;1.43;0.70;;;;;;;19.45;63.99;101408.03;5050883;28;20413;-63
2022/10/03 10:22:13;;;;;;;1.40;0.70;;;;;;;19.45;64.19;101399.44;5051226;28;20417;-63
2022/10/03 10:24:45;;;;;;;2.07;0.80;;;;;;;19.46;64.03;101403.97;5050975;28;20379;-63
2022/10/03 10:27:41;;;;;;;1.30;0.70;;;;;;;19.46;63.92;101397.41;5051042;28;20460;-64
2022/10/03 10:30:48;;;;;;;1.83;0.80;;;;;;;19.47;63.86;101397.03;5033244;28;21031;-63
2022/10/03 10:33:58;;;;;;;1.97;0.80;;;;;;;19.48;63.80;101398.72;5019005;28;20435;-63
2022/10/03 10:36:42;;;;;;;3.77;0.93;;;;;;;19.53;63.54;101391.91;5023833;28;20433;-63
2022/10/03 10:39:32;;;;;;;7.70;3.10;;;;;;;19.45;62.95;101396.56;5065532;28;20470;-64
2022/10/03 10:42:17;;;;;;;6.50;2.90;;;;;;;19.39;63.28;101398.00;5056052;28;20421;-64
2022/10/03 10:45:18;;;;;;;7.37;3.40;;;;;;;19.35;62.81;101399.06;5061703;28;20417;-64
2022/10/03 10:48:08;;;;;;;20.73;5.30;;;;;;;19.30;63.06;101400.16;5082226;28;20471;-64
2022/10/03 10:51:11;;;;;;;17.30;6.00;;;;;;;19.32;62.85;101394.91;5053112;28;20417;-64
2022/10/03 10:53:58;;;;;;;13.50;5.50;;;;;;;19.32;62.64;101394.09;5062903;28;20955;-64
2022/10/03 10:56:23;;;;;;;13.10;6.67;;;;;;;19.33;62.90;101387.16;5068525;28;20390;-63
2022/10/03 10:59:26;;;;;;;14.67;5.60;;;;;;;19.32;62.71;101386.31;5068399;28;20412;-64
2022/10/03 11:02:03;;;;;;;9.43;5.90;;;;;;;19.32;62.52;101394.91;5070315;28;20166;-64
2022/10/03 11:04:34;;;;;;;13.27;5.70;;;;;;;19.31;62.41;101396.09;5066711;28;20824;-64
2022/10/03 11:07:02;;;;;;;11.77;5.40;;;;;;;19.32;62.78;101396.94;5057134;28;20532;-64
2022/10/03 11:09:46;;;;;;;12.17;6.60;;;;;;;19.35;62.60;101384.75;5069036;28;20421;-64
2022/10/03 11:12:27;;;;;;;15.63;6.87;;;;;;;19.45;62.65;101379.38;5050606;28;20433;-65
2022/10/03 11:15:23;;;;;;;14.57;6.30;;;;;;;19.48;62.74;101381.53;5069515;28;20421;-65
2022/10/03 11:18:07;;;;;;;19.60;7.43;;;;;;;19.52;62.69;101378.78;5051257;28;20732;-65
2022/10/03 11:20:36;;;;;;;15.53;8.80;;;;;;;19.55;62.23;101378.88;5069547;28;20784;-65
2022/10/03 11:23:13;;;;;;;17.63;8.87;;;;;;;19.54;62.69;101382.94;5070317;28;20500;-64
2022/10/03 11:25:57;;;;;;;20.30;7.43;;;;;;;19.54;62.76;101379.25;5052345;28;20433;-64
2022/10/03 11:28:26;;;;;;;14.17;6.60;;;;;;;19.50;62.49;101379.13;5063751;28;20434;-64
2022/10/03 11:31:22;;;;;;;19.40;7.20;;;;;;;19.44;62.95;101376.88;5068846;28;20425;-65
2022/10/03 11:34:33;;;;;;;15.40;6.73;;;;;;;19.47;62.67;101370.44;5070200;28;20876;-65
2022/10/03 11:37:05;;;;;;;14.93;7.10;;;;;;;19.46;62.75;101372.44;5039744;28;20437;-65
2022/10/03 11:39:38;;;;;;;18.03;7.53;;;;;;;19.45;63.13;101375.66;5066144;28;20893;-64
2022/10/03 11:42:17;;;;;;;11.43;6.60;;;;;;;19.49;62.72;101366.00;5052830;28;20986;-64
2022/10/03 11:44:45;;;;;;;16.40;6.20;;;;;;;19.47;63.03;101365.53;5054672;28;20443;-68
2022/10/03 11:47:14;;;;;;;12.77;6.20;;;;;;;19.44;63.17;101356.81;5071040;28;20449;-64
2022/10/03 11:50:21;;;;;;;15.07;7.27;;;;;;;19.44;63.15;101356.81;5069451;28;20449;-65
2022/10/03 11:53:18;;;;;;;14.67;5.83;;;;;;;19.44;63.09;101357.69;5069783;28;20514;-64
2022/10/03 11:55:50;;;;;;;9.63;5.50;;;;;;;19.43;63.19;101353.16;5068709;28;20780;-66
2022/10/03 11:58:51;;;;;;;15.23;7.27;;;;;;;19.45;63.33;101347.88;5085543;28;20436;-66
2022/10/03 12:01:41;;;;;;;11.57;6.30;;;;;;;19.43;63.22;101349.44;5083722;28;20398;-65
2022/10/03 12:04:10;;;;;;;12.50;6.30;;;;;;;19.43;63.58;101350.28;5069523;28;20425;-66
2022/10/03 12:09:57;;;;;;;11.53;6.17;;;;;;;19.72;65.01;101351.97;5039472;28;20420;-66
2022/10/03 12:12:42;;;;;;;14.47;6.20;;;;;;;19.63;64.16;101342.69;5079510;28;20443;-65
2022/10/03 12:15:13;;;;;;;10.90;6.57;;;;;;;19.55;63.58;101344.50;5073791;28;20915;-64
2022/10/03 12:17:39;;;;;;;17.50;6.50;;;;;;;19.54;63.53;101347.72;5073839;28;20422;-67
2022/10/03 12:20:13;;;;;;;12.00;5.83;;;;;;;19.49;63.46;101334.50;5038606;28;20578;-65
2022/10/03 12:22:54;;;;;;;10.47;5.97;;;;;;;19.46;63.30;101335.22;5076738;28;20187;-65
2022/10/03 12:25:23;;;;;;;11.23;5.40;;;;;;;19.48;62.84;101335.72;5079353;28;20413;-66
2022/10/03 12:28:10;;;;;;;12.20;5.87;;;;;;;19.48;62.63;101332.00;5078509;28;20465;-66
2022/10/03 12:31:16;;;;;;;20.30;6.37;;;;;;;19.57;63.17;101322.06;5071017;28;21321;-67
2022/10/03 12:34:17;;;;;;;10.00;5.40;;;;;;;19.53;62.32;101318.28;5072033;28;20445;-66
2022/10/03 12:36:54;;;;;;;11.17;5.70;;;;;;;19.55;63.68;101315.00;5091725;28;20430;-68
2022/10/03 12:39:51;;;;;;;14.40;5.30;;;;;;;19.59;63.33;101315.97;5077621;28;20429;-68
2022/10/03 12:42:29;;;;;;;16.23;5.47;;;;;;;19.59;63.35;101316.81;5058251;28;20496;-67
2022/10/03 12:45:05;;;;;;;21.03;6.17;;;;;;;19.58;62.55;101315.16;5086274;28;20508;-66
2022/10/03 12:48:06;;;;;;;17.47;5.70;;;;;;;19.63;62.13;101311.19;5076519;28;20547;-66
2022/10/03 12:50:55;;;;;;;15.07;6.00;;;;;;;19.63;61.90;101309.16;5074738;28;20432;-66
2022/10/03 12:53:22;;;;;;;10.10;5.00;;;;;;;19.66;61.81;101311.28;5087308;28;20433;-66
2022/10/03 12:55:59;;;;;;;11.30;4.83;;;;;;;19.66;61.96;101311.28;5073398;28;20413;-66
2022/10/03 12:58:57;;;;;;;12.53;5.33;;;;;;;19.71;61.73;101305.28;5073562;28;20492;-66